sensor_id;sensor_type;location;lat;lon;timestamp;P1;durP1;ratioP1;P2;durP2;ratioP2
12124;SDS011;6126;57.908;16.490;2022-11-20T00:01:12;1.38;;;1.25;;
12124;SDS011;6126;57.908;16.490;2022-11-20T00:03:47;1.50;;;1.40;;
12124;SDS011;6126;57.908;16.490;2022-11-20T00:06:15;1.70;;;1.38;;
12124;SDS011;6126;57.908;16.490;2022-11-20T00:08:43;1.50;;;1.40;;
12124;SDS011;6126;57.908;16.490;2022-11-20T00:11:14;1.48;;;1.30;;
12124;SDS011;6126;57.908;16.490;2022-11-20T00:13:43;2.05;;;1.60;;
12124;SDS011;6126;57.908;16.490;2022-11-20T00:16:12;3.03;;;1.98;;
12124;SDS011;6126;57.908;16.490;2022-11-20T00:18:39;1.50;;;1.40;;
12124;SDS011;6126;57.908;16.490;2022-11-20T00:21:09;1.55;;;1.40;;
12124;SDS011;6126;57.908;16.490;2022-11-20T00:23:40;1.67;;;1.45;;
12124;SDS011;6126;57.908;16.490;2022-11-20T00:26:07;1.65;;;1.13;;
12124;SDS011;6126;57.908;16.490;2022-11-20T00:28:42;2.28;;;1.30;;
12124;SDS011;6126;57.908;16.490;2022-11-20T00:31:13;1.30;;;1.20;;
12124;SDS011;6126;57.908;16.490;2022-11-20T00:33:40;1.25;;;1.05;;
12124;SDS011;6126;57.908;16.490;2022-11-20T00:36:09;1.38;;;1.27;;
12124;SDS011;6126;57.908;16.490;2022-11-20T00:38:47;2.17;;;1.30;;
12124;SDS011;6126;57.908;16.490;2022-11-20T00:41:16;1.55;;;1.02;;
12124;SDS011;6126;57.908;16.490;2022-11-20T00:43:42;1.20;;;1.10;;
12124;SDS011;6126;57.908;16.490;2022-11-20T00:46:19;1.55;;;1.20;;
12124;SDS011;6126;57.908;16.490;2022-11-20T00:48:50;1.52;;;1.13;;
12124;SDS011;6126;57.908;16.490;2022-11-20T00:51:17;1.58;;;1.30;;
12124;SDS011;6126;57.908;16.490;2022-11-20T00:53:47;1.50;;;1.17;;
12124;SDS011;6126;57.908;16.490;2022-11-20T00:56:13;1.33;;;1.00;;
12124;SDS011;6126;57.908;16.490;2022-11-20T00:58:43;1.10;;;1.00;;
12124;SDS011;6126;57.908;16.490;2022-11-20T01:01:12;1.35;;;1.00;;
12124;SDS011;6126;57.908;16.490;2022-11-20T01:03:51;1.10;;;1.00;;
12124;SDS011;6126;57.908;16.490;2022-11-20T01:06:23;1.42;;;1.10;;
12124;SDS011;6126;57.908;16.490;2022-11-20T01:08:59;1.70;;;1.10;;
12124;SDS011;6126;57.908;16.490;2022-11-20T01:11:37;1.52;;;1.30;;
12124;SDS011;6126;57.908;16.490;2022-11-20T01:14:07;1.30;;;1.20;;
12124;SDS011;6126;57.908;16.490;2022-11-20T01:16:41;0.90;;;0.90;;
12124;SDS011;6126;57.908;16.490;2022-11-20T01:19:11;1.67;;;1.17;;
12124;SDS011;6126;57.908;16.490;2022-11-20T01:21:41;1.95;;;1.30;;
12124;SDS011;6126;57.908;16.490;2022-11-20T01:24:14;1.42;;;1.08;;
12124;SDS011;6126;57.908;16.490;2022-11-20T01:26:43;1.75;;;1.20;;
12124;SDS011;6126;57.908;16.490;2022-11-20T01:29:13;1.08;;;1.00;;
12124;SDS011;6126;57.908;16.490;2022-11-20T01:31:42;1.30;;;1.20;;
12124;SDS011;6126;57.908;16.490;2022-11-20T01:34:10;1.65;;;1.15;;
12124;SDS011;6126;57.908;16.490;2022-11-20T01:36:40;0.77;;;0.75;;
12124;SDS011;6126;57.908;16.490;2022-11-20T01:39:11;2.83;;;1.30;;
12124;SDS011;6126;57.908;16.490;2022-11-20T01:41:38;2.22;;;1.10;;
12124;SDS011;6126;57.908;16.490;2022-11-20T01:44:43;1.30;;;1.10;;
12124;SDS011;6126;57.908;16.490;2022-11-20T01:47:14;1.90;;;1.30;;
12124;SDS011;6126;57.908;16.490;2022-11-20T01:55:29;3.63;;;0.95;;
12124;SDS011;6126;57.908;16.490;2022-11-20T01:57:59;1.38;;;1.00;;
12124;SDS011;6126;57.908;16.490;2022-11-20T02:00:26;1.23;;;1.05;;
12124;SDS011;6126;57.908;16.490;2022-11-20T02:03:00;1.23;;;1.00;;
12124;SDS011;6126;57.908;16.490;2022-11-20T02:08:31;1.55;;;1.20;;
12124;SDS011;6126;57.908;16.490;2022-11-20T02:10:59;1.38;;;1.13;;
12124;SDS011;6126;57.908;16.490;2022-11-20T02:13:24;1.05;;;0.95;;
12124;SDS011;6126;57.908;16.490;2022-11-20T02:18:56;1.13;;;0.90;;
12124;SDS011;6126;57.908;16.490;2022-11-20T02:21:35;1.17;;;0.90;;
12124;SDS011;6126;57.908;16.490;2022-11-20T02:24:14;1.40;;;1.30;;
12124;SDS011;6126;57.908;16.490;2022-11-20T02:26:50;1.30;;;0.95;;
12124;SDS011;6126;57.908;16.490;2022-11-20T02:34:55;1.17;;;1.08;;
12124;SDS011;6126;57.908;16.490;2022-11-20T02:37:22;0.65;;;0.65;;
12124;SDS011;6126;57.908;16.490;2022-11-20T02:39:52;0.95;;;0.85;;
12124;SDS011;6126;57.908;16.490;2022-11-20T02:42:18;0.77;;;0.70;;
12124;SDS011;6126;57.908;16.490;2022-11-20T02:44:44;1.67;;;1.10;;
12124;SDS011;6126;57.908;16.490;2022-11-20T02:47:10;2.55;;;1.10;;
12124;SDS011;6126;57.908;16.490;2022-11-20T02:49:36;0.73;;;0.52;;
12124;SDS011;6126;57.908;16.490;2022-11-20T02:52:02;1.20;;;1.05;;
12124;SDS011;6126;57.908;16.490;2022-11-20T02:54:28;1.50;;;1.10;;
12124;SDS011;6126;57.908;16.490;2022-11-20T02:56:53;2.35;;;1.00;;
12124;SDS011;6126;57.908;16.490;2022-11-20T02:59:19;1.00;;;0.90;;
12124;SDS011;6126;57.908;16.490;2022-11-20T03:01:45;1.80;;;0.90;;
12124;SDS011;6126;57.908;16.490;2022-11-20T03:04:11;1.15;;;1.00;;
12124;SDS011;6126;57.908;16.490;2022-11-20T03:06:37;1.58;;;1.13;;
12124;SDS011;6126;57.908;16.490;2022-11-20T03:09:03;1.30;;;0.85;;
12124;SDS011;6126;57.908;16.490;2022-11-20T03:11:28;0.80;;;0.70;;
12124;SDS011;6126;57.908;16.490;2022-11-20T03:13:54;0.70;;;0.63;;
12124;SDS011;6126;57.908;16.490;2022-11-20T03:16:21;1.23;;;0.90;;
12124;SDS011;6126;57.908;16.490;2022-11-20T03:18:48;1.10;;;0.85;;
12124;SDS011;6126;57.908;16.490;2022-11-20T03:21:15;0.70;;;0.70;;
12124;SDS011;6126;57.908;16.490;2022-11-20T03:23:41;1.70;;;0.98;;
12124;SDS011;6126;57.908;16.490;2022-11-20T03:28:38;1.83;;;1.02;;
12124;SDS011;6126;57.908;16.490;2022-11-20T03:31:08;1.08;;;0.98;;
12124;SDS011;6126;57.908;16.490;2022-11-20T03:33:39;1.15;;;1.00;;
12124;SDS011;6126;57.908;16.490;2022-11-20T03:36:08;0.77;;;0.77;;
12124;SDS011;6126;57.908;16.490;2022-11-20T03:38:37;1.10;;;1.00;;
12124;SDS011;6126;57.908;16.490;2022-11-20T03:41:05;0.68;;;0.60;;
12124;SDS011;6126;57.908;16.490;2022-11-20T03:43:39;0.80;;;0.80;;
12124;SDS011;6126;57.908;16.490;2022-11-20T03:46:05;0.80;;;0.80;;
12124;SDS011;6126;57.908;16.490;2022-11-20T03:48:32;1.00;;;0.73;;
12124;SDS011;6126;57.908;16.490;2022-11-20T03:51:11;1.15;;;0.95;;
12124;SDS011;6126;57.908;16.490;2022-11-20T03:53:40;1.13;;;0.90;;
12124;SDS011;6126;57.908;16.490;2022-11-20T03:56:08;1.52;;;0.85;;
12124;SDS011;6126;57.908;16.490;2022-11-20T03:58:35;0.85;;;0.85;;
12124;SDS011;6126;57.908;16.490;2022-11-20T04:03:37;0.95;;;0.77;;
12124;SDS011;6126;57.908;16.490;2022-11-20T04:06:05;1.10;;;0.90;;
12124;SDS011;6126;57.908;16.490;2022-11-20T04:08:38;0.90;;;0.77;;
12124;SDS011;6126;57.908;16.490;2022-11-20T04:11:11;0.70;;;0.70;;
12124;SDS011;6126;57.908;16.490;2022-11-20T04:13:42;0.90;;;0.70;;
12124;SDS011;6126;57.908;16.490;2022-11-20T04:16:12;0.90;;;0.80;;
12124;SDS011;6126;57.908;16.490;2022-11-20T04:18:38;0.75;;;0.75;;
12124;SDS011;6126;57.908;16.490;2022-11-20T04:21:04;1.10;;;1.00;;
12124;SDS011;6126;57.908;16.490;2022-11-20T04:23:32;1.10;;;1.00;;
12124;SDS011;6126;57.908;16.490;2022-11-20T04:26:08;3.17;;;0.90;;
12124;SDS011;6126;57.908;16.490;2022-11-20T04:28:37;0.82;;;0.68;;
12124;SDS011;6126;57.908;16.490;2022-11-20T04:31:07;0.93;;;0.82;;
12124;SDS011;6126;57.908;16.490;2022-11-20T04:33:36;1.20;;;0.90;;
12124;SDS011;6126;57.908;16.490;2022-11-20T04:36:04;1.17;;;1.08;;
12124;SDS011;6126;57.908;16.490;2022-11-20T04:38:35;1.05;;;0.82;;
12124;SDS011;6126;57.908;16.490;2022-11-20T04:41:02;1.95;;;0.75;;
12124;SDS011;6126;57.908;16.490;2022-11-20T04:43:32;1.55;;;0.90;;
12124;SDS011;6126;57.908;16.490;2022-11-20T04:45:58;2.85;;;0.98;;
12124;SDS011;6126;57.908;16.490;2022-11-20T04:48:26;1.05;;;0.63;;
12124;SDS011;6126;57.908;16.490;2022-11-20T04:50:53;2.20;;;1.20;;
12124;SDS011;6126;57.908;16.490;2022-11-20T04:53:20;0.90;;;0.90;;
12124;SDS011;6126;57.908;16.490;2022-11-20T04:55:47;0.88;;;0.85;;
12124;SDS011;6126;57.908;16.490;2022-11-20T04:58:13;2.03;;;0.95;;
12124;SDS011;6126;57.908;16.490;2022-11-20T05:00:40;1.67;;;0.75;;
12124;SDS011;6126;57.908;16.490;2022-11-20T05:03:06;0.90;;;0.90;;
12124;SDS011;6126;57.908;16.490;2022-11-20T05:05:33;0.82;;;0.82;;
12124;SDS011;6126;57.908;16.490;2022-11-20T05:08:00;0.85;;;0.82;;
12124;SDS011;6126;57.908;16.490;2022-11-20T05:10:26;0.73;;;0.68;;
12124;SDS011;6126;57.908;16.490;2022-11-20T05:12:52;1.02;;;0.85;;
12124;SDS011;6126;57.908;16.490;2022-11-20T05:15:19;2.00;;;0.95;;
12124;SDS011;6126;57.908;16.490;2022-11-20T05:17:48;0.73;;;0.73;;
12124;SDS011;6126;57.908;16.490;2022-11-20T05:20:17;1.90;;;0.90;;
12124;SDS011;6126;57.908;16.490;2022-11-20T05:22:44;1.10;;;1.00;;
12124;SDS011;6126;57.908;16.490;2022-11-20T05:25:10;1.02;;;0.98;;
12124;SDS011;6126;57.908;16.490;2022-11-20T05:27:36;1.10;;;1.00;;
12124;SDS011;6126;57.908;16.490;2022-11-20T05:30:03;0.82;;;0.80;;
12124;SDS011;6126;57.908;16.490;2022-11-20T05:32:30;1.00;;;0.90;;
12124;SDS011;6126;57.908;16.490;2022-11-20T05:34:56;1.00;;;0.73;;
12124;SDS011;6126;57.908;16.490;2022-11-20T05:37:22;1.83;;;0.95;;
12124;SDS011;6126;57.908;16.490;2022-11-20T05:39:47;0.95;;;0.90;;
12124;SDS011;6126;57.908;16.490;2022-11-20T05:42:13;1.38;;;1.00;;
12124;SDS011;6126;57.908;16.490;2022-11-20T05:44:58;1.10;;;1.00;;
12124;SDS011;6126;57.908;16.490;2022-11-20T05:47:27;1.05;;;0.95;;
12124;SDS011;6126;57.908;16.490;2022-11-20T05:49:57;1.45;;;1.10;;
12124;SDS011;6126;57.908;16.490;2022-11-20T05:52:23;2.03;;;1.10;;
12124;SDS011;6126;57.908;16.490;2022-11-20T05:54:52;1.00;;;0.85;;
12124;SDS011;6126;57.908;16.490;2022-11-20T05:57:18;1.15;;;1.02;;
12124;SDS011;6126;57.908;16.490;2022-11-20T05:59:44;1.27;;;0.88;;
12124;SDS011;6126;57.908;16.490;2022-11-20T06:02:10;1.30;;;1.20;;
12124;SDS011;6126;57.908;16.490;2022-11-20T06:04:36;1.17;;;0.98;;
12124;SDS011;6126;57.908;16.490;2022-11-20T06:07:01;1.20;;;1.10;;
12124;SDS011;6126;57.908;16.490;2022-11-20T06:09:27;1.10;;;1.00;;
12124;SDS011;6126;57.908;16.490;2022-11-20T06:11:54;1.77;;;1.30;;
12124;SDS011;6126;57.908;16.490;2022-11-20T06:14:19;1.35;;;1.25;;
12124;SDS011;6126;57.908;16.490;2022-11-20T06:16:45;2.40;;;1.25;;
12124;SDS011;6126;57.908;16.490;2022-11-20T06:19:11;1.45;;;0.90;;
12124;SDS011;6126;57.908;16.490;2022-11-20T06:21:37;2.13;;;0.90;;
12124;SDS011;6126;57.908;16.490;2022-11-20T06:24:03;1.20;;;1.10;;
12124;SDS011;6126;57.908;16.490;2022-11-20T06:26:29;1.52;;;1.08;;
12124;SDS011;6126;57.908;16.490;2022-11-20T06:28:55;1.45;;;0.90;;
12124;SDS011;6126;57.908;16.490;2022-11-20T06:31:22;1.02;;;0.93;;
12124;SDS011;6126;57.908;16.490;2022-11-20T06:33:50;1.13;;;1.02;;
12124;SDS011;6126;57.908;16.490;2022-11-20T06:36:17;2.00;;;1.00;;
12124;SDS011;6126;57.908;16.490;2022-11-20T06:38:47;0.90;;;0.90;;
12124;SDS011;6126;57.908;16.490;2022-11-20T06:41:14;1.50;;;0.90;;
12124;SDS011;6126;57.908;16.490;2022-11-20T06:43:43;1.20;;;1.10;;
12124;SDS011;6126;57.908;16.490;2022-11-20T06:46:10;1.10;;;1.00;;
12124;SDS011;6126;57.908;16.490;2022-11-20T06:48:38;1.10;;;1.08;;
12124;SDS011;6126;57.908;16.490;2022-11-20T06:51:05;1.58;;;1.00;;
12124;SDS011;6126;57.908;16.490;2022-11-20T06:53:33;1.60;;;1.35;;
12124;SDS011;6126;57.908;16.490;2022-11-20T06:55:59;1.60;;;1.08;;
12124;SDS011;6126;57.908;16.490;2022-11-20T06:58:26;1.08;;;0.90;;
12124;SDS011;6126;57.908;16.490;2022-11-20T07:00:57;0.80;;;0.80;;
12124;SDS011;6126;57.908;16.490;2022-11-20T07:03:31;1.55;;;1.00;;
12124;SDS011;6126;57.908;16.490;2022-11-20T07:05:57;1.00;;;0.90;;
12124;SDS011;6126;57.908;16.490;2022-11-20T07:08:25;1.20;;;1.02;;
12124;SDS011;6126;57.908;16.490;2022-11-20T07:10:51;1.38;;;1.13;;
12124;SDS011;6126;57.908;16.490;2022-11-20T07:13:17;0.77;;;0.77;;
12124;SDS011;6126;57.908;16.490;2022-11-20T07:15:43;1.10;;;1.00;;
12124;SDS011;6126;57.908;16.490;2022-11-20T07:18:09;1.02;;;0.80;;
12124;SDS011;6126;57.908;16.490;2022-11-20T07:20:35;0.80;;;0.80;;
12124;SDS011;6126;57.908;16.490;2022-11-20T07:23:01;1.15;;;0.82;;
12124;SDS011;6126;57.908;16.490;2022-11-20T07:25:27;1.30;;;1.17;;
12124;SDS011;6126;57.908;16.490;2022-11-20T07:27:59;0.93;;;0.80;;
12124;SDS011;6126;57.908;16.490;2022-11-20T07:30:26;0.70;;;0.70;;
12124;SDS011;6126;57.908;16.490;2022-11-20T07:32:56;1.23;;;0.93;;
12124;SDS011;6126;57.908;16.490;2022-11-20T07:35:23;1.55;;;0.98;;
12124;SDS011;6126;57.908;16.490;2022-11-20T07:37:49;2.58;;;0.85;;
12124;SDS011;6126;57.908;16.490;2022-11-20T07:40:16;1.00;;;0.90;;
12124;SDS011;6126;57.908;16.490;2022-11-20T07:42:52;0.75;;;0.75;;
12124;SDS011;6126;57.908;16.490;2022-11-20T07:45:22;0.60;;;0.60;;
12124;SDS011;6126;57.908;16.490;2022-11-20T07:47:49;0.57;;;0.57;;
12124;SDS011;6126;57.908;16.490;2022-11-20T07:50:15;0.88;;;0.88;;
12124;SDS011;6126;57.908;16.490;2022-11-20T07:52:42;1.33;;;0.90;;
12124;SDS011;6126;57.908;16.490;2022-11-20T07:55:08;0.80;;;0.80;;
12124;SDS011;6126;57.908;16.490;2022-11-20T07:57:35;0.75;;;0.70;;
12124;SDS011;6126;57.908;16.490;2022-11-20T08:00:01;0.85;;;0.70;;
12124;SDS011;6126;57.908;16.490;2022-11-20T08:02:29;0.70;;;0.70;;
12124;SDS011;6126;57.908;16.490;2022-11-20T08:04:54;1.15;;;0.80;;
12124;SDS011;6126;57.908;16.490;2022-11-20T08:07:20;0.80;;;0.80;;
12124;SDS011;6126;57.908;16.490;2022-11-20T08:09:46;1.02;;;0.68;;
12124;SDS011;6126;57.908;16.490;2022-11-20T08:12:19;1.15;;;0.70;;
12124;SDS011;6126;57.908;16.490;2022-11-20T08:15:05;1.05;;;0.95;;
12124;SDS011;6126;57.908;16.490;2022-11-20T08:17:31;0.80;;;0.70;;
12124;SDS011;6126;57.908;16.490;2022-11-20T08:19:57;0.52;;;0.52;;
12124;SDS011;6126;57.908;16.490;2022-11-20T08:22:23;0.57;;;0.55;;
12124;SDS011;6126;57.908;16.490;2022-11-20T08:24:50;0.90;;;0.80;;
12124;SDS011;6126;57.908;16.490;2022-11-20T08:27:15;0.77;;;0.60;;
12124;SDS011;6126;57.908;16.490;2022-11-20T08:29:41;1.27;;;0.70;;
12124;SDS011;6126;57.908;16.490;2022-11-20T08:32:07;1.02;;;0.95;;
12124;SDS011;6126;57.908;16.490;2022-11-20T08:34:33;1.30;;;0.77;;
12124;SDS011;6126;57.908;16.490;2022-11-20T08:36:59;0.68;;;0.50;;
12124;SDS011;6126;57.908;16.490;2022-11-20T08:39:27;0.65;;;0.60;;
12124;SDS011;6126;57.908;16.490;2022-11-20T08:41:53;0.85;;;0.85;;
12124;SDS011;6126;57.908;16.490;2022-11-20T08:44:19;2.35;;;1.17;;
12124;SDS011;6126;57.908;16.490;2022-11-20T08:46:44;0.90;;;0.65;;
12124;SDS011;6126;57.908;16.490;2022-11-20T08:49:12;0.70;;;0.70;;
12124;SDS011;6126;57.908;16.490;2022-11-20T08:51:39;0.70;;;0.70;;
12124;SDS011;6126;57.908;16.490;2022-11-20T08:54:06;0.85;;;0.75;;
12124;SDS011;6126;57.908;16.490;2022-11-20T08:56:32;0.80;;;0.80;;
12124;SDS011;6126;57.908;16.490;2022-11-20T08:58:59;1.00;;;0.85;;
12124;SDS011;6126;57.908;16.490;2022-11-20T09:01:25;1.20;;;0.85;;
12124;SDS011;6126;57.908;16.490;2022-11-20T09:03:51;1.20;;;0.70;;
12124;SDS011;6126;57.908;16.490;2022-11-20T09:06:17;0.80;;;0.70;;
12124;SDS011;6126;57.908;16.490;2022-11-20T09:08:43;0.82;;;0.77;;
12124;SDS011;6126;57.908;16.490;2022-11-20T09:11:09;0.80;;;0.80;;
12124;SDS011;6126;57.908;16.490;2022-11-20T09:13:36;0.93;;;0.70;;
12124;SDS011;6126;57.908;16.490;2022-11-20T09:16:05;1.08;;;0.73;;
12124;SDS011;6126;57.908;16.490;2022-11-20T09:18:34;0.65;;;0.65;;
12124;SDS011;6126;57.908;16.490;2022-11-20T09:21:03;1.00;;;0.90;;
12124;SDS011;6126;57.908;16.490;2022-11-20T09:23:38;0.60;;;0.60;;
12124;SDS011;6126;57.908;16.490;2022-11-20T09:26:12;0.93;;;0.77;;
12124;SDS011;6126;57.908;16.490;2022-11-20T09:28:38;1.10;;;0.80;;
12124;SDS011;6126;57.908;16.490;2022-11-20T09:31:08;1.00;;;0.82;;
12124;SDS011;6126;57.908;16.490;2022-11-20T09:33:44;1.30;;;1.15;;
12124;SDS011;6126;57.908;16.490;2022-11-20T09:36:10;1.00;;;0.88;;
12124;SDS011;6126;57.908;16.490;2022-11-20T09:38:36;0.70;;;0.60;;
12124;SDS011;6126;57.908;16.490;2022-11-20T09:41:03;1.10;;;0.85;;
12124;SDS011;6126;57.908;16.490;2022-11-20T09:43:54;0.82;;;0.82;;
12124;SDS011;6126;57.908;16.490;2022-11-20T09:46:40;0.88;;;0.80;;
12124;SDS011;6126;57.908;16.490;2022-11-20T09:49:50;1.10;;;1.00;;
12124;SDS011;6126;57.908;16.490;2022-11-20T09:52:46;1.08;;;0.85;;
12124;SDS011;6126;57.908;16.490;2022-11-20T09:55:46;0.93;;;0.82;;
12124;SDS011;6126;57.908;16.490;2022-11-20T09:58:22;1.00;;;0.90;;
12124;SDS011;6126;57.908;16.490;2022-11-20T10:01:01;0.80;;;0.80;;
12124;SDS011;6126;57.908;16.490;2022-11-20T10:03:53;1.08;;;0.80;;
12124;SDS011;6126;57.908;16.490;2022-11-20T10:06:32;1.73;;;0.90;;
12124;SDS011;6126;57.908;16.490;2022-11-20T10:14:21;1.05;;;0.90;;
12124;SDS011;6126;57.908;16.490;2022-11-20T10:25:26;1.80;;;1.10;;
12124;SDS011;6126;57.908;16.490;2022-11-20T10:31:02;0.73;;;0.73;;
12124;SDS011;6126;57.908;16.490;2022-11-20T10:33:37;1.00;;;0.80;;
12124;SDS011;6126;57.908;16.490;2022-11-20T10:36:13;1.40;;;1.17;;
12124;SDS011;6126;57.908;16.490;2022-11-20T10:38:50;0.98;;;0.80;;
12124;SDS011;6126;57.908;16.490;2022-11-20T10:41:20;0.95;;;0.80;;
12124;SDS011;6126;57.908;16.490;2022-11-20T10:44:05;0.60;;;0.60;;
12124;SDS011;6126;57.908;16.490;2022-11-20T10:47:01;0.82;;;0.82;;
12124;SDS011;6126;57.908;16.490;2022-11-20T10:49:30;0.80;;;0.80;;
12124;SDS011;6126;57.908;16.490;2022-11-20T10:54:33;0.93;;;0.80;;
12124;SDS011;6126;57.908;16.490;2022-11-20T10:57:17;0.70;;;0.70;;
12124;SDS011;6126;57.908;16.490;2022-11-20T11:00:16;0.80;;;0.70;;
12124;SDS011;6126;57.908;16.490;2022-11-20T11:02:44;1.10;;;1.00;;
12124;SDS011;6126;57.908;16.490;2022-11-20T11:07:57;1.02;;;0.90;;
12124;SDS011;6126;57.908;16.490;2022-11-20T11:10:26;1.10;;;1.00;;
12124;SDS011;6126;57.908;16.490;2022-11-20T11:13:03;0.90;;;0.90;;
12124;SDS011;6126;57.908;16.490;2022-11-20T11:15:35;1.38;;;0.90;;
12124;SDS011;6126;57.908;16.490;2022-11-20T11:18:09;0.82;;;0.82;;
12124;SDS011;6126;57.908;16.490;2022-11-20T11:20:36;1.73;;;0.85;;
12124;SDS011;6126;57.908;16.490;2022-11-20T11:23:03;0.63;;;0.60;;
12124;SDS011;6126;57.908;16.490;2022-11-20T11:28:18;0.93;;;0.80;;
12124;SDS011;6126;57.908;16.490;2022-11-20T11:30:49;0.85;;;0.75;;
12124;SDS011;6126;57.908;16.490;2022-11-20T11:33:19;1.15;;;1.00;;
12124;SDS011;6126;57.908;16.490;2022-11-20T11:35:55;0.70;;;0.70;;
12124;SDS011;6126;57.908;16.490;2022-11-20T11:38:42;0.90;;;0.80;;
12124;SDS011;6126;57.908;16.490;2022-11-20T11:41:11;1.10;;;0.75;;
12124;SDS011;6126;57.908;16.490;2022-11-20T11:43:51;0.85;;;0.65;;
12124;SDS011;6126;57.908;16.490;2022-11-20T11:46:41;0.75;;;0.75;;
12124;SDS011;6126;57.908;16.490;2022-11-20T11:49:19;0.85;;;0.60;;
12124;SDS011;6126;57.908;16.490;2022-11-20T11:57:12;0.50;;;0.50;;
12124;SDS011;6126;57.908;16.490;2022-11-20T12:16:17;0.75;;;0.70;;
12124;SDS011;6126;57.908;16.490;2022-11-20T12:18:46;0.75;;;0.70;;
12124;SDS011;6126;57.908;16.490;2022-11-20T12:35:36;1.05;;;0.73;;
12124;SDS011;6126;57.908;16.490;2022-11-20T12:49:50;0.60;;;0.60;;
12124;SDS011;6126;57.908;16.490;2022-11-20T12:52:39;1.15;;;0.68;;
12124;SDS011;6126;57.908;16.490;2022-11-20T12:58:16;0.50;;;0.50;;
12124;SDS011;6126;57.908;16.490;2022-11-20T13:01:03;0.52;;;0.50;;
12124;SDS011;6126;57.908;16.490;2022-11-20T13:07:22;1.13;;;0.60;;
12124;SDS011;6126;57.908;16.490;2022-11-20T13:09:52;0.47;;;0.40;;
12124;SDS011;6126;57.908;16.490;2022-11-20T13:12:42;0.73;;;0.50;;
12124;SDS011;6126;57.908;16.490;2022-11-20T13:18:15;0.60;;;0.60;;
12124;SDS011;6126;57.908;16.490;2022-11-20T13:20:43;0.32;;;0.30;;
12124;SDS011;6126;57.908;16.490;2022-11-20T13:23:10;0.77;;;0.52;;
12124;SDS011;6126;57.908;16.490;2022-11-20T13:25:37;0.93;;;0.50;;
12124;SDS011;6126;57.908;16.490;2022-11-20T13:30:37;0.30;;;0.30;;
12124;SDS011;6126;57.908;16.490;2022-11-20T13:33:27;0.40;;;0.40;;
12124;SDS011;6126;57.908;16.490;2022-11-20T13:38:44;0.50;;;0.50;;
12124;SDS011;6126;57.908;16.490;2022-11-20T13:41:28;0.40;;;0.40;;
12124;SDS011;6126;57.908;16.490;2022-11-20T13:44:06;1.17;;;0.60;;
12124;SDS011;6126;57.908;16.490;2022-11-20T13:46:46;0.38;;;0.38;;
12124;SDS011;6126;57.908;16.490;2022-11-20T13:51:50;0.30;;;0.30;;
12124;SDS011;6126;57.908;16.490;2022-11-20T13:54:48;0.40;;;0.40;;
12124;SDS011;6126;57.908;16.490;2022-11-20T14:00:30;0.57;;;0.50;;
12124;SDS011;6126;57.908;16.490;2022-11-20T14:03:07;0.30;;;0.30;;
12124;SDS011;6126;57.908;16.490;2022-11-20T14:05:49;0.30;;;0.30;;
12124;SDS011;6126;57.908;16.490;2022-11-20T14:13:54;0.65;;;0.50;;
12124;SDS011;6126;57.908;16.490;2022-11-20T14:16:28;0.68;;;0.32;;
12124;SDS011;6126;57.908;16.490;2022-11-20T14:18:57;0.40;;;0.40;;
12124;SDS011;6126;57.908;16.490;2022-11-20T14:21:46;0.50;;;0.47;;
12124;SDS011;6126;57.908;16.490;2022-11-20T14:24:23;0.40;;;0.40;;
12124;SDS011;6126;57.908;16.490;2022-11-20T14:26:50;0.52;;;0.47;;
12124;SDS011;6126;57.908;16.490;2022-11-20T14:31:45;0.10;;;0.10;;
12124;SDS011;6126;57.908;16.490;2022-11-20T14:34:18;0.30;;;0.30;;
12124;SDS011;6126;57.908;16.490;2022-11-20T14:36:50;0.35;;;0.35;;
12124;SDS011;6126;57.908;16.490;2022-11-20T14:39:30;0.47;;;0.40;;
12124;SDS011;6126;57.908;16.490;2022-11-20T14:42:14;0.40;;;0.40;;
12124;SDS011;6126;57.908;16.490;2022-11-20T14:44:43;0.20;;;0.20;;
12124;SDS011;6126;57.908;16.490;2022-11-20T14:47:11;0.40;;;0.40;;
12124;SDS011;6126;57.908;16.490;2022-11-20T14:49:40;0.40;;;0.40;;
12124;SDS011;6126;57.908;16.490;2022-11-20T14:52:14;0.40;;;0.40;;
12124;SDS011;6126;57.908;16.490;2022-11-20T14:54:43;0.40;;;0.40;;
12124;SDS011;6126;57.908;16.490;2022-11-20T14:59:46;0.30;;;0.30;;
12124;SDS011;6126;57.908;16.490;2022-11-20T15:02:12;0.68;;;0.35;;
12124;SDS011;6126;57.908;16.490;2022-11-20T15:04:58;3.80;;;0.45;;
12124;SDS011;6126;57.908;16.490;2022-11-20T15:07:30;0.32;;;0.32;;
12124;SDS011;6126;57.908;16.490;2022-11-20T15:10:06;0.40;;;0.30;;
12124;SDS011;6126;57.908;16.490;2022-11-20T15:12:46;0.30;;;0.30;;
12124;SDS011;6126;57.908;16.490;2022-11-20T15:18:12;0.38;;;0.28;;
12124;SDS011;6126;57.908;16.490;2022-11-20T15:20:51;0.20;;;0.20;;
12124;SDS011;6126;57.908;16.490;2022-11-20T15:23:21;0.47;;;0.30;;
12124;SDS011;6126;57.908;16.490;2022-11-20T15:25:48;0.32;;;0.32;;
12124;SDS011;6126;57.908;16.490;2022-11-20T15:28:19;0.30;;;0.30;;
12124;SDS011;6126;57.908;16.490;2022-11-20T15:30:52;0.30;;;0.30;;
12124;SDS011;6126;57.908;16.490;2022-11-20T15:33:18;0.35;;;0.35;;
12124;SDS011;6126;57.908;16.490;2022-11-20T15:35:44;0.30;;;0.30;;
12124;SDS011;6126;57.908;16.490;2022-11-20T15:38:10;0.45;;;0.45;;
12124;SDS011;6126;57.908;16.490;2022-11-20T15:40:36;0.50;;;0.50;;
12124;SDS011;6126;57.908;16.490;2022-11-20T15:43:02;0.40;;;0.30;;
12124;SDS011;6126;57.908;16.490;2022-11-20T15:45:29;0.40;;;0.40;;
12124;SDS011;6126;57.908;16.490;2022-11-20T15:48:15;0.45;;;0.43;;
12124;SDS011;6126;57.908;16.490;2022-11-20T15:53:35;0.40;;;0.40;;
12124;SDS011;6126;57.908;16.490;2022-11-20T15:56:07;0.32;;;0.32;;
12124;SDS011;6126;57.908;16.490;2022-11-20T15:58:37;0.47;;;0.47;;
12124;SDS011;6126;57.908;16.490;2022-11-20T16:01:04;0.90;;;0.40;;
12124;SDS011;6126;57.908;16.490;2022-11-20T16:03:29;0.25;;;0.25;;
12124;SDS011;6126;57.908;16.490;2022-11-20T16:05:55;0.28;;;0.28;;
12124;SDS011;6126;57.908;16.490;2022-11-20T16:08:21;0.20;;;0.20;;
12124;SDS011;6126;57.908;16.490;2022-11-20T16:10:47;0.20;;;0.20;;
12124;SDS011;6126;57.908;16.490;2022-11-20T16:13:14;0.30;;;0.30;;
12124;SDS011;6126;57.908;16.490;2022-11-20T16:16:02;0.75;;;0.40;;
12124;SDS011;6126;57.908;16.490;2022-11-20T16:18:44;0.25;;;0.25;;
12124;SDS011;6126;57.908;16.490;2022-11-20T16:21:13;0.30;;;0.30;;
12124;SDS011;6126;57.908;16.490;2022-11-20T16:23:39;0.30;;;0.30;;
12124;SDS011;6126;57.908;16.490;2022-11-20T16:26:12;0.30;;;0.30;;
12124;SDS011;6126;57.908;16.490;2022-11-20T16:28:42;0.30;;;0.30;;
12124;SDS011;6126;57.908;16.490;2022-11-20T16:31:12;0.38;;;0.38;;
12124;SDS011;6126;57.908;16.490;2022-11-20T16:33:41;0.30;;;0.30;;
12124;SDS011;6126;57.908;16.490;2022-11-20T16:36:11;0.65;;;0.30;;
12124;SDS011;6126;57.908;16.490;2022-11-20T16:38:40;0.20;;;0.20;;
12124;SDS011;6126;57.908;16.490;2022-11-20T16:41:07;0.70;;;0.50;;
12124;SDS011;6126;57.908;16.490;2022-11-20T16:43:49;0.20;;;0.20;;
12124;SDS011;6126;57.908;16.490;2022-11-20T16:46:18;0.38;;;0.38;;
12124;SDS011;6126;57.908;16.490;2022-11-20T16:49:00;1.15;;;0.50;;
12124;SDS011;6126;57.908;16.490;2022-11-20T16:51:37;1.02;;;0.40;;
12124;SDS011;6126;57.908;16.490;2022-11-20T16:54:07;0.30;;;0.20;;
12124;SDS011;6126;57.908;16.490;2022-11-20T16:56:34;0.25;;;0.25;;
12124;SDS011;6126;57.908;16.490;2022-11-20T16:59:00;0.38;;;0.28;;
12124;SDS011;6126;57.908;16.490;2022-11-20T17:01:27;0.30;;;0.30;;
12124;SDS011;6126;57.908;16.490;2022-11-20T17:06:25;0.40;;;0.32;;
12124;SDS011;6126;57.908;16.490;2022-11-20T17:08:54;0.20;;;0.20;;
12124;SDS011;6126;57.908;16.490;2022-11-20T17:11:21;0.82;;;0.40;;
12124;SDS011;6126;57.908;16.490;2022-11-20T17:13:49;0.32;;;0.30;;
12124;SDS011;6126;57.908;16.490;2022-11-20T17:16:16;0.88;;;0.20;;
12124;SDS011;6126;57.908;16.490;2022-11-20T17:18:45;0.57;;;0.40;;
12124;SDS011;6126;57.908;16.490;2022-11-20T17:21:13;0.20;;;0.20;;
12124;SDS011;6126;57.908;16.490;2022-11-20T17:23:41;0.30;;;0.30;;